Hlavní strana
METAR-TAF:

METAR-TAF

Letiště :

Alton / St. Louis, Illinois, Spojené státy americké

zeměpisná šířka: 38-54N, zeměpisná délka: 090-03W, výška: 166 m

Aktuální stav počasí

Zpráva byla vytvořena před 18 minutami, v 09:15 UTC
Severní vítr 6 kt
Teplota -7°C
Vlhkost vzduchu 79%
Tlak 1019 hPa
Viditelnost: 16.1 km
Oblačno až skoro zataženo ve výšce 8000 ft
Zataženo ve výšce 11000 ft

METAR: KALN 160915Z AUTO 36006KT 10SM BKN080 OVC110 M07/M10 A3008 RMK AO2 T10711099

Čas: 03:33 (09:33 UTC)


TAF: chybějící

Stav a předpovědi počasí z více než 4 000 letišť (zprávy METAR a TAF).

Červené a žluté tečky na mapě představují dostupné meteorologické stanice.

Když kurzor umístíte na tečku, zobrazí se název stanice.

Pak kliknutím zobrazíte stav a předpověď počasí.

Chcete-li změnit mapu, kliknutím na zelené tlačítko se znaménkem +mapu přiblížíte, kliknutím na zelené tlačítko se znaménkem – mapu oddálíte a kliknutím na zelené šipky přejdete na sousední mapy.


METAR-TAF: